sensor_id;sensor_type;location;lat;lon;timestamp;P1;durP1;ratioP1;P2;durP2;ratioP2
67092;SDS011;54011;50.772;7.730;2023-04-15T00:01:22;11.63;;;5.05;;
67092;SDS011;54011;50.772;7.730;2023-04-15T00:03:49;15.63;;;6.15;;
67092;SDS011;54011;50.772;7.730;2023-04-15T00:06:16;13.70;;;5.80;;
67092;SDS011;54011;50.772;7.730;2023-04-15T00:08:43;16.17;;;5.40;;
67092;SDS011;54011;50.772;7.730;2023-04-15T00:11:09;13.25;;;5.10;;
67092;SDS011;54011;50.772;7.730;2023-04-15T00:13:35;12.35;;;5.03;;
67092;SDS011;54011;50.772;7.730;2023-04-15T00:16:01;12.20;;;4.90;;
67092;SDS011;54011;50.772;7.730;2023-04-15T00:18:27;10.00;;;4.95;;
67092;SDS011;54011;50.772;7.730;2023-04-15T00:20:54;11.25;;;4.60;;
67092;SDS011;54011;50.772;7.730;2023-04-15T00:23:19;16.77;;;4.47;;
67092;SDS011;54011;50.772;7.730;2023-04-15T00:25:45;10.05;;;4.90;;
67092;SDS011;54011;50.772;7.730;2023-04-15T00:28:11;13.85;;;4.43;;
67092;SDS011;54011;50.772;7.730;2023-04-15T00:30:41;11.32;;;4.53;;
67092;SDS011;54011;50.772;7.730;2023-04-15T00:33:06;13.80;;;4.63;;
67092;SDS011;54011;50.772;7.730;2023-04-15T00:35:32;10.50;;;4.05;;
67092;SDS011;54011;50.772;7.730;2023-04-15T00:37:59;9.15;;;4.10;;
67092;SDS011;54011;50.772;7.730;2023-04-15T00:40:25;10.73;;;4.97;;
67092;SDS011;54011;50.772;7.730;2023-04-15T00:42:52;14.50;;;4.72;;
67092;SDS011;54011;50.772;7.730;2023-04-15T00:45:17;9.73;;;4.43;;
67092;SDS011;54011;50.772;7.730;2023-04-15T00:47:43;13.77;;;4.97;;
67092;SDS011;54011;50.772;7.730;2023-04-15T00:50:10;10.23;;;4.28;;
67092;SDS011;54011;50.772;7.730;2023-04-15T00:52:36;9.10;;;4.30;;
67092;SDS011;54011;50.772;7.730;2023-04-15T00:55:03;8.55;;;4.43;;
67092;SDS011;54011;50.772;7.730;2023-04-15T00:57:33;10.35;;;4.20;;
67092;SDS011;54011;50.772;7.730;2023-04-15T00:59:59;12.13;;;4.28;;
67092;SDS011;54011;50.772;7.730;2023-04-15T01:02:25;12.68;;;4.60;;
67092;SDS011;54011;50.772;7.730;2023-04-15T01:04:51;11.68;;;4.13;;
67092;SDS011;54011;50.772;7.730;2023-04-15T01:07:17;13.07;;;4.25;;
67092;SDS011;54011;50.772;7.730;2023-04-15T01:09:43;13.10;;;4.22;;
67092;SDS011;54011;50.772;7.730;2023-04-15T01:12:10;8.38;;;3.95;;
67092;SDS011;54011;50.772;7.730;2023-04-15T01:14:38;13.52;;;4.85;;
67092;SDS011;54011;50.772;7.730;2023-04-15T01:17:04;10.45;;;4.43;;
67092;SDS011;54011;50.772;7.730;2023-04-15T01:19:29;9.90;;;4.10;;
67092;SDS011;54011;50.772;7.730;2023-04-15T01:21:55;13.20;;;4.43;;
67092;SDS011;54011;50.772;7.730;2023-04-15T01:24:21;10.73;;;4.03;;
67092;SDS011;54011;50.772;7.730;2023-04-15T01:26:47;8.27;;;4.07;;
67092;SDS011;54011;50.772;7.730;2023-04-15T01:29:31;9.38;;;3.95;;
67092;SDS011;54011;50.772;7.730;2023-04-15T01:31:59;11.18;;;4.45;;
67092;SDS011;54011;50.772;7.730;2023-04-15T01:34:25;8.75;;;4.18;;
67092;SDS011;54011;50.772;7.730;2023-04-15T01:36:52;11.15;;;3.90;;
67092;SDS011;54011;50.772;7.730;2023-04-15T01:39:20;10.77;;;3.55;;
67092;SDS011;54011;50.772;7.730;2023-04-15T01:41:46;8.50;;;3.88;;
67092;SDS011;54011;50.772;7.730;2023-04-15T01:44:12;8.75;;;4.07;;
67092;SDS011;54011;50.772;7.730;2023-04-15T01:46:38;10.10;;;4.20;;
67092;SDS011;54011;50.772;7.730;2023-04-15T01:49:04;12.43;;;4.10;;
67092;SDS011;54011;50.772;7.730;2023-04-15T01:51:30;9.07;;;3.50;;
67092;SDS011;54011;50.772;7.730;2023-04-15T01:53:57;10.73;;;3.92;;
67092;SDS011;54011;50.772;7.730;2023-04-15T01:56:22;16.55;;;3.83;;
67092;SDS011;54011;50.772;7.730;2023-04-15T01:58:49;9.85;;;3.90;;
67092;SDS011;54011;50.772;7.730;2023-04-15T02:01:14;9.05;;;3.67;;
67092;SDS011;54011;50.772;7.730;2023-04-15T02:03:41;11.43;;;3.97;;
67092;SDS011;54011;50.772;7.730;2023-04-15T02:06:06;8.13;;;3.80;;
67092;SDS011;54011;50.772;7.730;2023-04-15T02:08:32;11.57;;;3.70;;
67092;SDS011;54011;50.772;7.730;2023-04-15T02:10:57;11.80;;;3.72;;
67092;SDS011;54011;50.772;7.730;2023-04-15T02:13:23;12.77;;;3.95;;
67092;SDS011;54011;50.772;7.730;2023-04-15T02:15:49;10.45;;;3.90;;
67092;SDS011;54011;50.772;7.730;2023-04-15T02:18:17;18.70;;;4.90;;
67092;SDS011;54011;50.772;7.730;2023-04-15T02:20:43;11.88;;;3.80;;
67092;SDS011;54011;50.772;7.730;2023-04-15T02:23:12;14.57;;;4.18;;
67092;SDS011;54011;50.772;7.730;2023-04-15T02:25:38;8.23;;;3.78;;
67092;SDS011;54011;50.772;7.730;2023-04-15T02:28:04;8.48;;;3.50;;
67092;SDS011;54011;50.772;7.730;2023-04-15T02:30:31;9.90;;;4.18;;
67092;SDS011;54011;50.772;7.730;2023-04-15T02:33:00;12.98;;;4.88;;
67092;SDS011;54011;50.772;7.730;2023-04-15T02:35:26;9.38;;;3.75;;
67092;SDS011;54011;50.772;7.730;2023-04-15T02:37:52;10.55;;;4.13;;
67092;SDS011;54011;50.772;7.730;2023-04-15T02:40:18;15.13;;;4.15;;
67092;SDS011;54011;50.772;7.730;2023-04-15T02:42:44;12.80;;;4.13;;
67092;SDS011;54011;50.772;7.730;2023-04-15T02:45:12;8.32;;;3.38;;
67092;SDS011;54011;50.772;7.730;2023-04-15T02:47:39;12.45;;;3.92;;
67092;SDS011;54011;50.772;7.730;2023-04-15T02:50:07;9.32;;;3.90;;
67092;SDS011;54011;50.772;7.730;2023-04-15T02:52:33;11.93;;;4.18;;
67092;SDS011;54011;50.772;7.730;2023-04-15T02:54:58;9.38;;;3.65;;
67092;SDS011;54011;50.772;7.730;2023-04-15T02:57:27;7.22;;;3.47;;
67092;SDS011;54011;50.772;7.730;2023-04-15T02:59:54;7.85;;;3.13;;
67092;SDS011;54011;50.772;7.730;2023-04-15T03:02:20;10.98;;;3.65;;
67092;SDS011;54011;50.772;7.730;2023-04-15T03:04:45;6.70;;;3.50;;
67092;SDS011;54011;50.772;7.730;2023-04-15T03:07:11;11.20;;;3.58;;
67092;SDS011;54011;50.772;7.730;2023-04-15T03:09:36;10.63;;;3.10;;
67092;SDS011;54011;50.772;7.730;2023-04-15T03:12:05;8.40;;;3.53;;
67092;SDS011;54011;50.772;7.730;2023-04-15T03:14:31;11.25;;;3.50;;
67092;SDS011;54011;50.772;7.730;2023-04-15T03:16:56;8.23;;;3.42;;
67092;SDS011;54011;50.772;7.730;2023-04-15T03:19:23;7.82;;;3.20;;
67092;SDS011;54011;50.772;7.730;2023-04-15T03:21:49;8.13;;;2.97;;
67092;SDS011;54011;50.772;7.730;2023-04-15T03:24:16;7.85;;;3.08;;
67092;SDS011;54011;50.772;7.730;2023-04-15T03:26:43;6.53;;;2.88;;
67092;SDS011;54011;50.772;7.730;2023-04-15T03:29:12;8.52;;;3.10;;
67092;SDS011;54011;50.772;7.730;2023-04-15T03:31:39;8.45;;;3.67;;
67092;SDS011;54011;50.772;7.730;2023-04-15T03:34:04;7.88;;;3.33;;
67092;SDS011;54011;50.772;7.730;2023-04-15T03:36:30;8.20;;;3.25;;
67092;SDS011;54011;50.772;7.730;2023-04-15T03:38:57;7.43;;;3.55;;
67092;SDS011;54011;50.772;7.730;2023-04-15T03:41:23;7.65;;;3.63;;
67092;SDS011;54011;50.772;7.730;2023-04-15T03:43:48;7.00;;;3.55;;
67092;SDS011;54011;50.772;7.730;2023-04-15T03:46:16;7.28;;;3.58;;
67092;SDS011;54011;50.772;7.730;2023-04-15T03:48:42;12.00;;;3.88;;
67092;SDS011;54011;50.772;7.730;2023-04-15T03:51:08;14.38;;;3.95;;
67092;SDS011;54011;50.772;7.730;2023-04-15T03:53:33;9.95;;;4.00;;
67092;SDS011;54011;50.772;7.730;2023-04-15T03:55:59;12.23;;;3.67;;
67092;SDS011;54011;50.772;7.730;2023-04-15T03:58:24;8.02;;;3.25;;
67092;SDS011;54011;50.772;7.730;2023-04-15T04:00:50;6.65;;;3.25;;
67092;SDS011;54011;50.772;7.730;2023-04-15T04:03:16;7.18;;;3.42;;
67092;SDS011;54011;50.772;7.730;2023-04-15T04:05:42;9.02;;;3.17;;
67092;SDS011;54011;50.772;7.730;2023-04-15T04:08:08;8.43;;;3.65;;
67092;SDS011;54011;50.772;7.730;2023-04-15T04:10:34;7.40;;;3.60;;
67092;SDS011;54011;50.772;7.730;2023-04-15T04:13:00;9.85;;;3.67;;
67092;SDS011;54011;50.772;7.730;2023-04-15T04:15:26;10.52;;;3.83;;
67092;SDS011;54011;50.772;7.730;2023-04-15T04:17:52;7.40;;;3.70;;
67092;SDS011;54011;50.772;7.730;2023-04-15T04:20:17;9.63;;;3.60;;
67092;SDS011;54011;50.772;7.730;2023-04-15T04:22:43;9.15;;;3.15;;
67092;SDS011;54011;50.772;7.730;2023-04-15T04:25:09;8.23;;;3.45;;
67092;SDS011;54011;50.772;7.730;2023-04-15T04:27:35;8.65;;;3.63;;
67092;SDS011;54011;50.772;7.730;2023-04-15T04:30:00;8.00;;;3.78;;
67092;SDS011;54011;50.772;7.730;2023-04-15T04:32:26;8.40;;;3.67;;
67092;SDS011;54011;50.772;7.730;2023-04-15T04:34:52;9.05;;;3.58;;
67092;SDS011;54011;50.772;7.730;2023-04-15T04:37:17;9.25;;;3.50;;
67092;SDS011;54011;50.772;7.730;2023-04-15T04:39:43;7.38;;;2.95;;
67092;SDS011;54011;50.772;7.730;2023-04-15T04:42:08;7.32;;;2.85;;
67092;SDS011;54011;50.772;7.730;2023-04-15T04:47:30;6.05;;;3.33;;
67092;SDS011;54011;50.772;7.730;2023-04-15T04:53:02;9.25;;;4.15;;
67092;SDS011;54011;50.772;7.730;2023-04-15T04:58:45;7.43;;;3.60;;
67092;SDS011;54011;50.772;7.730;2023-04-15T05:01:11;10.10;;;3.58;;
67092;SDS011;54011;50.772;7.730;2023-04-15T05:03:37;7.15;;;3.10;;
67092;SDS011;54011;50.772;7.730;2023-04-15T05:06:02;8.35;;;3.28;;
67092;SDS011;54011;50.772;7.730;2023-04-15T05:08:30;7.95;;;3.50;;
67092;SDS011;54011;50.772;7.730;2023-04-15T05:10:56;7.72;;;3.45;;
67092;SDS011;54011;50.772;7.730;2023-04-15T05:13:21;8.13;;;4.18;;
67092;SDS011;54011;50.772;7.730;2023-04-15T05:15:47;9.18;;;4.13;;
67092;SDS011;54011;50.772;7.730;2023-04-15T05:18:12;9.68;;;4.20;;
67092;SDS011;54011;50.772;7.730;2023-04-15T05:20:37;8.80;;;3.80;;
67092;SDS011;54011;50.772;7.730;2023-04-15T05:23:03;6.97;;;3.05;;
67092;SDS011;54011;50.772;7.730;2023-04-15T05:25:28;8.60;;;3.20;;
67092;SDS011;54011;50.772;7.730;2023-04-15T05:27:54;7.80;;;3.55;;
67092;SDS011;54011;50.772;7.730;2023-04-15T05:30:20;6.97;;;3.75;;
67092;SDS011;54011;50.772;7.730;2023-04-15T05:32:46;10.30;;;3.70;;
67092;SDS011;54011;50.772;7.730;2023-04-15T05:35:12;9.15;;;4.22;;
67092;SDS011;54011;50.772;7.730;2023-04-15T05:37:37;8.88;;;4.05;;
67092;SDS011;54011;50.772;7.730;2023-04-15T05:40:03;9.65;;;4.07;;
67092;SDS011;54011;50.772;7.730;2023-04-15T05:42:29;10.43;;;4.00;;
67092;SDS011;54011;50.772;7.730;2023-04-15T05:44:54;8.80;;;3.88;;
67092;SDS011;54011;50.772;7.730;2023-04-15T05:47:20;9.23;;;4.13;;
67092;SDS011;54011;50.772;7.730;2023-04-15T05:49:45;7.22;;;3.42;;
67092;SDS011;54011;50.772;7.730;2023-04-15T05:52:11;7.80;;;3.28;;
67092;SDS011;54011;50.772;7.730;2023-04-15T05:54:37;9.18;;;3.53;;
67092;SDS011;54011;50.772;7.730;2023-04-15T05:57:02;10.05;;;3.35;;
67092;SDS011;54011;50.772;7.730;2023-04-15T05:59:28;8.50;;;3.33;;
67092;SDS011;54011;50.772;7.730;2023-04-15T06:01:53;8.55;;;3.90;;
67092;SDS011;54011;50.772;7.730;2023-04-15T06:04:19;9.15;;;3.55;;
67092;SDS011;54011;50.772;7.730;2023-04-15T06:06:44;6.47;;;3.42;;
67092;SDS011;54011;50.772;7.730;2023-04-15T06:09:10;7.68;;;3.75;;
67092;SDS011;54011;50.772;7.730;2023-04-15T06:11:35;9.40;;;4.50;;
67092;SDS011;54011;50.772;7.730;2023-04-15T06:14:01;8.68;;;3.83;;
67092;SDS011;54011;50.772;7.730;2023-04-15T06:16:27;14.65;;;5.40;;
67092;SDS011;54011;50.772;7.730;2023-04-15T06:18:52;10.70;;;4.55;;
67092;SDS011;54011;50.772;7.730;2023-04-15T06:21:18;11.02;;;5.35;;
67092;SDS011;54011;50.772;7.730;2023-04-15T06:23:44;10.80;;;4.70;;
67092;SDS011;54011;50.772;7.730;2023-04-15T06:26:10;8.55;;;5.07;;
67092;SDS011;54011;50.772;7.730;2023-04-15T06:28:35;10.73;;;4.78;;
67092;SDS011;54011;50.772;7.730;2023-04-15T06:31:01;13.27;;;5.32;;
67092;SDS011;54011;50.772;7.730;2023-04-15T06:33:27;9.00;;;4.43;;
67092;SDS011;54011;50.772;7.730;2023-04-15T06:35:53;11.63;;;4.70;;
67092;SDS011;54011;50.772;7.730;2023-04-15T06:38:19;10.60;;;4.93;;
67092;SDS011;54011;50.772;7.730;2023-04-15T06:40:44;8.95;;;5.38;;
67092;SDS011;54011;50.772;7.730;2023-04-15T06:43:13;11.93;;;5.32;;
67092;SDS011;54011;50.772;7.730;2023-04-15T06:45:39;11.55;;;6.18;;
67092;SDS011;54011;50.772;7.730;2023-04-15T06:48:04;15.27;;;6.38;;
67092;SDS011;54011;50.772;7.730;2023-04-15T06:50:30;10.07;;;5.93;;
67092;SDS011;54011;50.772;7.730;2023-04-15T06:53:04;12.80;;;5.13;;
67092;SDS011;54011;50.772;7.730;2023-04-15T06:55:29;9.50;;;4.80;;
67092;SDS011;54011;50.772;7.730;2023-04-15T06:57:55;13.95;;;5.40;;
67092;SDS011;54011;50.772;7.730;2023-04-15T07:00:22;11.40;;;5.03;;
67092;SDS011;54011;50.772;7.730;2023-04-15T07:02:47;9.85;;;4.90;;
67092;SDS011;54011;50.772;7.730;2023-04-15T07:05:13;10.48;;;5.43;;
67092;SDS011;54011;50.772;7.730;2023-04-15T07:07:38;11.45;;;5.10;;
67092;SDS011;54011;50.772;7.730;2023-04-15T07:10:04;10.13;;;4.78;;
67092;SDS011;54011;50.772;7.730;2023-04-15T07:12:30;10.32;;;5.40;;
67092;SDS011;54011;50.772;7.730;2023-04-15T07:14:55;8.50;;;5.32;;
67092;SDS011;54011;50.772;7.730;2023-04-15T07:17:21;9.82;;;5.22;;
67092;SDS011;54011;50.772;7.730;2023-04-15T07:19:46;10.55;;;5.30;;
67092;SDS011;54011;50.772;7.730;2023-04-15T07:22:12;11.27;;;6.13;;
67092;SDS011;54011;50.772;7.730;2023-04-15T07:24:37;11.60;;;4.63;;
67092;SDS011;54011;50.772;7.730;2023-04-15T07:27:03;11.70;;;5.30;;
67092;SDS011;54011;50.772;7.730;2023-04-15T07:29:29;10.40;;;5.00;;
67092;SDS011;54011;50.772;7.730;2023-04-15T07:31:54;8.95;;;5.15;;
67092;SDS011;54011;50.772;7.730;2023-04-15T07:34:21;9.90;;;5.30;;
67092;SDS011;54011;50.772;7.730;2023-04-15T07:36:46;12.27;;;4.88;;
67092;SDS011;54011;50.772;7.730;2023-04-15T07:39:16;9.40;;;4.30;;
67092;SDS011;54011;50.772;7.730;2023-04-15T07:41:42;10.88;;;5.82;;
67092;SDS011;54011;50.772;7.730;2023-04-15T07:44:07;9.02;;;5.00;;
67092;SDS011;54011;50.772;7.730;2023-04-15T07:46:33;10.02;;;4.32;;
67092;SDS011;54011;50.772;7.730;2023-04-15T07:48:59;11.73;;;5.20;;
67092;SDS011;54011;50.772;7.730;2023-04-15T07:51:24;6.38;;;3.50;;
67092;SDS011;54011;50.772;7.730;2023-04-15T07:53:50;10.35;;;5.10;;
67092;SDS011;54011;50.772;7.730;2023-04-15T07:56:16;9.82;;;4.93;;
67092;SDS011;54011;50.772;7.730;2023-04-15T07:58:41;7.40;;;4.70;;
67092;SDS011;54011;50.772;7.730;2023-04-15T08:01:07;8.23;;;4.47;;
67092;SDS011;54011;50.772;7.730;2023-04-15T08:03:33;10.07;;;4.85;;
67092;SDS011;54011;50.772;7.730;2023-04-15T08:05:59;8.50;;;4.05;;
67092;SDS011;54011;50.772;7.730;2023-04-15T08:08:24;8.38;;;4.07;;
67092;SDS011;54011;50.772;7.730;2023-04-15T08:10:50;8.82;;;3.78;;
67092;SDS011;54011;50.772;7.730;2023-04-15T08:13:16;8.18;;;3.72;;
67092;SDS011;54011;50.772;7.730;2023-04-15T08:15:42;6.97;;;3.50;;
67092;SDS011;54011;50.772;7.730;2023-04-15T08:18:07;7.10;;;3.10;;
67092;SDS011;54011;50.772;7.730;2023-04-15T08:20:33;5.35;;;2.30;;
67092;SDS011;54011;50.772;7.730;2023-04-15T08:22:59;4.10;;;1.88;;
67092;SDS011;54011;50.772;7.730;2023-04-15T08:25:24;3.10;;;1.60;;
67092;SDS011;54011;50.772;7.730;2023-04-15T08:27:49;5.15;;;1.77;;
67092;SDS011;54011;50.772;7.730;2023-04-15T08:30:16;4.05;;;1.80;;
67092;SDS011;54011;50.772;7.730;2023-04-15T08:32:42;4.80;;;2.17;;
67092;SDS011;54011;50.772;7.730;2023-04-15T08:35:11;3.88;;;1.73;;
67092;SDS011;54011;50.772;7.730;2023-04-15T08:37:38;3.65;;;1.40;;
67092;SDS011;54011;50.772;7.730;2023-04-15T08:40:03;2.47;;;1.20;;
67092;SDS011;54011;50.772;7.730;2023-04-15T08:42:30;3.03;;;1.20;;
67092;SDS011;54011;50.772;7.730;2023-04-15T08:44:59;3.70;;;1.63;;
67092;SDS011;54011;50.772;7.730;2023-04-15T08:47:28;3.85;;;1.70;;
67092;SDS011;54011;50.772;7.730;2023-04-15T08:49:55;3.88;;;1.40;;
67092;SDS011;54011;50.772;7.730;2023-04-15T08:52:23;3.65;;;1.55;;
67092;SDS011;54011;50.772;7.730;2023-04-15T08:54:50;3.30;;;1.50;;
67092;SDS011;54011;50.772;7.730;2023-04-15T08:57:22;3.08;;;1.40;;
67092;SDS011;54011;50.772;7.730;2023-04-15T09:02:17;6.05;;;1.65;;
67092;SDS011;54011;50.772;7.730;2023-04-15T09:04:43;3.00;;;1.42;;
67092;SDS011;54011;50.772;7.730;2023-04-15T09:07:08;4.43;;;1.52;;
67092;SDS011;54011;50.772;7.730;2023-04-15T09:09:34;3.80;;;1.40;;
67092;SDS011;54011;50.772;7.730;2023-04-15T09:12:01;4.78;;;1.60;;
67092;SDS011;54011;50.772;7.730;2023-04-15T09:14:27;3.75;;;1.70;;
67092;SDS011;54011;50.772;7.730;2023-04-15T09:17:00;4.72;;;1.80;;
67092;SDS011;54011;50.772;7.730;2023-04-15T09:19:27;5.05;;;1.73;;
67092;SDS011;54011;50.772;7.730;2023-04-15T09:21:54;4.80;;;2.10;;
67092;SDS011;54011;50.772;7.730;2023-04-15T09:24:24;5.25;;;1.80;;
67092;SDS011;54011;50.772;7.730;2023-04-15T09:26:52;3.70;;;1.77;;
67092;SDS011;54011;50.772;7.730;2023-04-15T09:29:23;5.43;;;1.50;;
67092;SDS011;54011;50.772;7.730;2023-04-15T09:31:49;3.95;;;1.42;;
67092;SDS011;54011;50.772;7.730;2023-04-15T09:34:15;3.10;;;1.48;;
67092;SDS011;54011;50.772;7.730;2023-04-15T09:39:16;3.83;;;1.45;;
67092;SDS011;54011;50.772;7.730;2023-04-15T09:42:09;4.75;;;1.77;;
67092;SDS011;54011;50.772;7.730;2023-04-15T09:44:35;4.32;;;1.80;;
67092;SDS011;54011;50.772;7.730;2023-04-15T09:47:01;8.40;;;1.98;;
67092;SDS011;54011;50.772;7.730;2023-04-15T09:49:26;5.18;;;2.10;;
67092;SDS011;54011;50.772;7.730;2023-04-15T09:51:56;3.00;;;1.60;;
67092;SDS011;54011;50.772;7.730;2023-04-15T09:54:23;5.75;;;1.98;;
67092;SDS011;54011;50.772;7.730;2023-04-15T09:56:49;5.32;;;2.00;;
67092;SDS011;54011;50.772;7.730;2023-04-15T09:59:14;5.57;;;2.95;;
67092;SDS011;54011;50.772;7.730;2023-04-15T10:01:40;4.82;;;1.92;;
67092;SDS011;54011;50.772;7.730;2023-04-15T10:04:06;6.32;;;2.03;;
67092;SDS011;54011;50.772;7.730;2023-04-15T10:06:33;3.63;;;1.60;;
67092;SDS011;54011;50.772;7.730;2023-04-15T10:09:00;5.45;;;1.83;;
67092;SDS011;54011;50.772;7.730;2023-04-15T10:11:27;4.43;;;1.85;;
67092;SDS011;54011;50.772;7.730;2023-04-15T10:13:53;3.72;;;1.52;;
67092;SDS011;54011;50.772;7.730;2023-04-15T10:16:20;2.95;;;1.35;;
67092;SDS011;54011;50.772;7.730;2023-04-15T10:18:56;3.35;;;1.35;;
67092;SDS011;54011;50.772;7.730;2023-04-15T10:21:25;3.45;;;1.67;;
67092;SDS011;54011;50.772;7.730;2023-04-15T10:23:52;4.50;;;2.10;;
67092;SDS011;54011;50.772;7.730;2023-04-15T10:26:18;4.40;;;1.83;;
67092;SDS011;54011;50.772;7.730;2023-04-15T10:28:44;3.75;;;1.90;;
67092;SDS011;54011;50.772;7.730;2023-04-15T10:31:13;5.22;;;2.00;;
67092;SDS011;54011;50.772;7.730;2023-04-15T10:33:39;5.32;;;2.08;;
67092;SDS011;54011;50.772;7.730;2023-04-15T10:36:06;4.75;;;1.70;;
67092;SDS011;54011;50.772;7.730;2023-04-15T10:41:13;3.03;;;1.33;;
67092;SDS011;54011;50.772;7.730;2023-04-15T10:46:23;3.58;;;1.58;;
67092;SDS011;54011;50.772;7.730;2023-04-15T10:48:59;2.97;;;1.25;;
67092;SDS011;54011;50.772;7.730;2023-04-15T10:51:32;3.13;;;1.33;;
67092;SDS011;54011;50.772;7.730;2023-04-15T10:53:58;2.17;;;0.90;;
67092;SDS011;54011;50.772;7.730;2023-04-15T10:56:27;2.85;;;1.23;;
67092;SDS011;54011;50.772;7.730;2023-04-15T10:58:54;3.13;;;1.10;;
67092;SDS011;54011;50.772;7.730;2023-04-15T11:01:20;2.95;;;1.30;;
67092;SDS011;54011;50.772;7.730;2023-04-15T11:03:49;4.68;;;1.50;;
67092;SDS011;54011;50.772;7.730;2023-04-15T11:06:15;4.60;;;1.38;;
67092;SDS011;54011;50.772;7.730;2023-04-15T11:08:54;5.30;;;1.38;;
67092;SDS011;54011;50.772;7.730;2023-04-15T11:11:23;3.70;;;1.40;;
67092;SDS011;54011;50.772;7.730;2023-04-15T11:14:13;2.58;;;1.10;;
67092;SDS011;54011;50.772;7.730;2023-04-15T11:16:43;3.78;;;1.40;;
67092;SDS011;54011;50.772;7.730;2023-04-15T11:19:12;3.53;;;1.35;;
67092;SDS011;54011;50.772;7.730;2023-04-15T11:21:37;3.17;;;1.35;;
67092;SDS011;54011;50.772;7.730;2023-04-15T11:24:03;3.95;;;1.70;;
67092;SDS011;54011;50.772;7.730;2023-04-15T11:26:29;2.67;;;1.20;;
67092;SDS011;54011;50.772;7.730;2023-04-15T11:28:55;3.72;;;1.45;;
67092;SDS011;54011;50.772;7.730;2023-04-15T11:31:21;3.20;;;1.52;;
67092;SDS011;54011;50.772;7.730;2023-04-15T11:36:19;4.50;;;1.60;;
67092;SDS011;54011;50.772;7.730;2023-04-15T11:38:45;3.80;;;1.50;;
67092;SDS011;54011;50.772;7.730;2023-04-15T11:41:18;4.05;;;1.80;;
67092;SDS011;54011;50.772;7.730;2023-04-15T11:43:45;3.40;;;1.65;;
67092;SDS011;54011;50.772;7.730;2023-04-15T11:46:10;4.40;;;2.20;;
67092;SDS011;54011;50.772;7.730;2023-04-15T11:48:40;4.90;;;2.40;;
67092;SDS011;54011;50.772;7.730;2023-04-15T11:51:07;5.28;;;2.25;;
67092;SDS011;54011;50.772;7.730;2023-04-15T11:53:48;3.90;;;2.03;;
67092;SDS011;54011;50.772;7.730;2023-04-15T11:56:19;4.20;;;2.58;;
67092;SDS011;54011;50.772;7.730;2023-04-15T11:58:52;7.00;;;3.00;;
67092;SDS011;54011;50.772;7.730;2023-04-15T12:01:29;5.47;;;3.10;;
67092;SDS011;54011;50.772;7.730;2023-04-15T12:04:15;5.85;;;3.45;;
67092;SDS011;54011;50.772;7.730;2023-04-15T12:06:43;5.60;;;2.95;;
67092;SDS011;54011;50.772;7.730;2023-04-15T12:09:10;6.55;;;3.55;;
67092;SDS011;54011;50.772;7.730;2023-04-15T12:14:09;6.78;;;3.92;;
67092;SDS011;54011;50.772;7.730;2023-04-15T12:16:46;5.70;;;3.60;;
67092;SDS011;54011;50.772;7.730;2023-04-15T12:19:14;6.70;;;3.85;;
67092;SDS011;54011;50.772;7.730;2023-04-15T12:21:43;6.63;;;3.65;;
67092;SDS011;54011;50.772;7.730;2023-04-15T12:24:10;9.52;;;4.30;;
67092;SDS011;54011;50.772;7.730;2023-04-15T12:26:46;7.88;;;4.50;;
67092;SDS011;54011;50.772;7.730;2023-04-15T12:29:14;7.53;;;4.18;;
67092;SDS011;54011;50.772;7.730;2023-04-15T12:31:51;8.20;;;4.43;;
67092;SDS011;54011;50.772;7.730;2023-04-15T12:35:19;6.63;;;3.53;;
67092;SDS011;54011;50.772;7.730;2023-04-15T12:37:14;7.95;;;4.95;;
67092;SDS011;54011;50.772;7.730;2023-04-15T12:39:41;7.50;;;4.63;;
67092;SDS011;54011;50.772;7.730;2023-04-15T12:42:07;6.63;;;3.80;;
67092;SDS011;54011;50.772;7.730;2023-04-15T12:44:34;8.27;;;4.72;;
67092;SDS011;54011;50.772;7.730;2023-04-15T12:47:00;8.75;;;5.32;;
67092;SDS011;54011;50.772;7.730;2023-04-15T12:49:27;7.35;;;4.18;;
67092;SDS011;54011;50.772;7.730;2023-04-15T12:51:54;7.72;;;4.75;;
67092;SDS011;54011;50.772;7.730;2023-04-15T12:54:21;8.43;;;4.95;;
67092;SDS011;54011;50.772;7.730;2023-04-15T12:56:47;7.93;;;4.95;;
67092;SDS011;54011;50.772;7.730;2023-04-15T12:59:14;6.13;;;3.75;;
67092;SDS011;54011;50.772;7.730;2023-04-15T13:01:40;7.90;;;5.15;;
67092;SDS011;54011;50.772;7.730;2023-04-15T13:04:06;8.80;;;5.38;;
67092;SDS011;54011;50.772;7.730;2023-04-15T13:06:32;10.40;;;5.82;;
67092;SDS011;54011;50.772;7.730;2023-04-15T13:08:58;9.07;;;5.22;;
67092;SDS011;54011;50.772;7.730;2023-04-15T13:11:25;8.50;;;5.68;;
67092;SDS011;54011;50.772;7.730;2023-04-15T13:13:53;10.43;;;7.45;;
67092;SDS011;54011;50.772;7.730;2023-04-15T13:16:19;10.63;;;7.18;;
67092;SDS011;54011;50.772;7.730;2023-04-15T13:18:47;10.07;;;6.90;;
67092;SDS011;54011;50.772;7.730;2023-04-15T13:21:12;10.75;;;7.05;;
67092;SDS011;54011;50.772;7.730;2023-04-15T13:23:39;11.13;;;7.05;;
67092;SDS011;54011;50.772;7.730;2023-04-15T13:26:06;12.63;;;8.20;;
67092;SDS011;54011;50.772;7.730;2023-04-15T13:28:32;12.02;;;8.38;;
67092;SDS011;54011;50.772;7.730;2023-04-15T13:30:58;11.25;;;6.97;;
67092;SDS011;54011;50.772;7.730;2023-04-15T13:33:24;12.40;;;8.68;;
67092;SDS011;54011;50.772;7.730;2023-04-15T13:35:50;7.78;;;5.15;;
67092;SDS011;54011;50.772;7.730;2023-04-15T13:38:15;11.73;;;8.40;;
67092;SDS011;54011;50.772;7.730;2023-04-15T13:40:41;12.60;;;8.85;;
67092;SDS011;54011;50.772;7.730;2023-04-15T13:43:07;13.07;;;8.80;;
67092;SDS011;54011;50.772;7.730;2023-04-15T13:45:33;12.35;;;7.95;;
67092;SDS011;54011;50.772;7.730;2023-04-15T13:47:58;13.20;;;8.75;;
67092;SDS011;54011;50.772;7.730;2023-04-15T13:50:24;12.35;;;7.82;;
67092;SDS011;54011;50.772;7.730;2023-04-15T13:52:50;15.18;;;9.35;;
67092;SDS011;54011;50.772;7.730;2023-04-15T13:55:15;15.25;;;9.23;;
67092;SDS011;54011;50.772;7.730;2023-04-15T13:57:41;15.63;;;9.52;;
67092;SDS011;54011;50.772;7.730;2023-04-15T14:00:07;15.48;;;8.90;;
67092;SDS011;54011;50.772;7.730;2023-04-15T14:02:33;13.88;;;8.88;;
67092;SDS011;54011;50.772;7.730;2023-04-15T14:04:59;14.05;;;8.68;;
67092;SDS011;54011;50.772;7.730;2023-04-15T14:07:26;13.93;;;8.10;;
67092;SDS011;54011;50.772;7.730;2023-04-15T14:09:54;11.43;;;7.13;;
67092;SDS011;54011;50.772;7.730;2023-04-15T14:12:20;13.07;;;8.30;;
67092;SDS011;54011;50.772;7.730;2023-04-15T14:14:45;13.43;;;8.27;;
67092;SDS011;54011;50.772;7.730;2023-04-15T14:17:11;10.48;;;6.63;;
67092;SDS011;54011;50.772;7.730;2023-04-15T14:19:37;9.02;;;5.03;;
67092;SDS011;54011;50.772;7.730;2023-04-15T14:22:02;8.88;;;5.70;;
67092;SDS011;54011;50.772;7.730;2023-04-15T14:24:28;9.70;;;6.00;;
67092;SDS011;54011;50.772;7.730;2023-04-15T14:26:53;10.15;;;6.03;;
67092;SDS011;54011;50.772;7.730;2023-04-15T14:29:20;12.38;;;6.43;;
67092;SDS011;54011;50.772;7.730;2023-04-15T14:31:46;7.53;;;4.18;;
67092;SDS011;54011;50.772;7.730;2023-04-15T14:34:12;9.23;;;5.00;;
67092;SDS011;54011;50.772;7.730;2023-04-15T14:36:38;10.75;;;6.15;;
67092;SDS011;54011;50.772;7.730;2023-04-15T14:39:04;10.95;;;5.95;;
67092;SDS011;54011;50.772;7.730;2023-04-15T14:41:29;12.10;;;6.68;;
67092;SDS011;54011;50.772;7.730;2023-04-15T14:43:55;9.75;;;5.18;;
67092;SDS011;54011;50.772;7.730;2023-04-15T14:46:21;8.35;;;5.15;;
67092;SDS011;54011;50.772;7.730;2023-04-15T14:48:47;9.48;;;5.75;;
67092;SDS011;54011;50.772;7.730;2023-04-15T14:51:13;9.27;;;5.43;;
67092;SDS011;54011;50.772;7.730;2023-04-15T14:53:38;8.38;;;5.50;;
67092;SDS011;54011;50.772;7.730;2023-04-15T14:56:04;10.82;;;6.57;;
67092;SDS011;54011;50.772;7.730;2023-04-15T14:58:30;10.93;;;6.07;;
67092;SDS011;54011;50.772;7.730;2023-04-15T15:00:56;8.88;;;5.82;;
67092;SDS011;54011;50.772;7.730;2023-04-15T15:03:22;12.70;;;6.18;;
67092;SDS011;54011;50.772;7.730;2023-04-15T15:05:47;9.20;;;5.65;;